sensor_id;sensor_type;location;lat;lon;timestamp;P1;durP1;ratioP1;P2;durP2;ratioP2
50695;SDS011;36665;51.786;21.594;2023-05-20T00:07:26;29.00;;;13.90;;
50695;SDS011;36665;51.786;21.594;2023-05-20T00:15:49;30.50;;;14.10;;
50695;SDS011;36665;51.786;21.594;2023-05-20T00:24:13;24.10;;;12.60;;
50695;SDS011;36665;51.786;21.594;2023-05-20T00:32:36;25.90;;;12.70;;
50695;SDS011;36665;51.786;21.594;2023-05-20T00:41:01;24.30;;;12.50;;
50695;SDS011;36665;51.786;21.594;2023-05-20T00:49:24;29.30;;;13.20;;
50695;SDS011;36665;51.786;21.594;2023-05-20T00:57:47;28.00;;;13.10;;
50695;SDS011;36665;51.786;21.594;2023-05-20T01:06:11;24.90;;;13.90;;
50695;SDS011;36665;51.786;21.594;2023-05-20T01:14:35;22.60;;;12.20;;
50695;SDS011;36665;51.786;21.594;2023-05-20T01:23:14;20.80;;;12.90;;
50695;SDS011;36665;51.786;21.594;2023-05-20T01:31:37;23.10;;;13.40;;
50695;SDS011;36665;51.786;21.594;2023-05-20T01:40:00;27.30;;;13.70;;
50695;SDS011;36665;51.786;21.594;2023-05-20T01:48:26;25.70;;;14.10;;
50695;SDS011;36665;51.786;21.594;2023-05-20T01:56:50;81.40;;;49.40;;
50695;SDS011;36665;51.786;21.594;2023-05-20T02:05:13;27.60;;;14.20;;
50695;SDS011;36665;51.786;21.594;2023-05-20T02:13:38;24.40;;;12.90;;
50695;SDS011;36665;51.786;21.594;2023-05-20T02:22:01;27.10;;;12.70;;
50695;SDS011;36665;51.786;21.594;2023-05-20T02:30:24;24.20;;;12.50;;
50695;SDS011;36665;51.786;21.594;2023-05-20T02:38:48;25.00;;;13.20;;
50695;SDS011;36665;51.786;21.594;2023-05-20T02:47:12;24.30;;;12.80;;
50695;SDS011;36665;51.786;21.594;2023-05-20T02:55:36;24.90;;;12.10;;
50695;SDS011;36665;51.786;21.594;2023-05-20T03:03:59;23.00;;;12.50;;
50695;SDS011;36665;51.786;21.594;2023-05-20T03:12:22;19.80;;;11.50;;
50695;SDS011;36665;51.786;21.594;2023-05-20T03:20:47;19.90;;;11.20;;
50695;SDS011;36665;51.786;21.594;2023-05-20T03:29:10;19.70;;;10.90;;
50695;SDS011;36665;51.786;21.594;2023-05-20T03:37:34;15.00;;;9.40;;
50695;SDS011;36665;51.786;21.594;2023-05-20T03:45:58;17.10;;;8.60;;
50695;SDS011;36665;51.786;21.594;2023-05-20T03:54:21;21.00;;;9.10;;
50695;SDS011;36665;51.786;21.594;2023-05-20T04:02:46;20.40;;;8.50;;
50695;SDS011;36665;51.786;21.594;2023-05-20T04:11:11;13.40;;;7.40;;
50695;SDS011;36665;51.786;21.594;2023-05-20T04:19:34;21.10;;;7.90;;
50695;SDS011;36665;51.786;21.594;2023-05-20T04:28:00;33.40;;;15.90;;
50695;SDS011;36665;51.786;21.594;2023-05-20T04:36:24;21.30;;;10.80;;
50695;SDS011;36665;51.786;21.594;2023-05-20T04:44:51;18.80;;;9.10;;
50695;SDS011;36665;51.786;21.594;2023-05-20T04:53:15;12.90;;;6.10;;
50695;SDS011;36665;51.786;21.594;2023-05-20T05:01:39;5.00;;;3.50;;
50695;SDS011;36665;51.786;21.594;2023-05-20T05:10:02;6.40;;;3.90;;
50695;SDS011;36665;51.786;21.594;2023-05-20T05:18:26;9.70;;;3.70;;
50695;SDS011;36665;51.786;21.594;2023-05-20T05:26:53;6.10;;;3.20;;
50695;SDS011;36665;51.786;21.594;2023-05-20T05:35:16;14.20;;;9.60;;
50695;SDS011;36665;51.786;21.594;2023-05-20T05:43:40;8.50;;;3.70;;
50695;SDS011;36665;51.786;21.594;2023-05-20T05:52:03;9.90;;;3.80;;
50695;SDS011;36665;51.786;21.594;2023-05-20T06:00:26;6.30;;;3.70;;
50695;SDS011;36665;51.786;21.594;2023-05-20T06:08:50;5.70;;;3.40;;
50695;SDS011;36665;51.786;21.594;2023-05-20T06:17:13;6.80;;;3.20;;
50695;SDS011;36665;51.786;21.594;2023-05-20T06:25:37;17.40;;;10.80;;
50695;SDS011;36665;51.786;21.594;2023-05-20T06:34:01;7.90;;;4.10;;
50695;SDS011;36665;51.786;21.594;2023-05-20T06:42:25;4.70;;;3.10;;
50695;SDS011;36665;51.786;21.594;2023-05-20T06:50:58;7.00;;;3.50;;
50695;SDS011;36665;51.786;21.594;2023-05-20T06:59:21;7.40;;;3.40;;
50695;SDS011;36665;51.786;21.594;2023-05-20T07:07:44;7.20;;;3.10;;
50695;SDS011;36665;51.786;21.594;2023-05-20T07:16:08;8.40;;;3.40;;
50695;SDS011;36665;51.786;21.594;2023-05-20T07:24:34;6.30;;;3.30;;
50695;SDS011;36665;51.786;21.594;2023-05-20T07:32:59;10.30;;;5.70;;
50695;SDS011;36665;51.786;21.594;2023-05-20T07:41:22;8.30;;;3.40;;
50695;SDS011;36665;51.786;21.594;2023-05-20T07:49:46;10.70;;;3.50;;
50695;SDS011;36665;51.786;21.594;2023-05-20T07:58:09;5.90;;;3.60;;
50695;SDS011;36665;51.786;21.594;2023-05-20T08:06:33;9.60;;;6.50;;
50695;SDS011;36665;51.786;21.594;2023-05-20T08:14:58;4.60;;;4.00;;
50695;SDS011;36665;51.786;21.594;2023-05-20T08:23:22;6.10;;;3.90;;
50695;SDS011;36665;51.786;21.594;2023-05-20T08:31:46;7.00;;;3.60;;
50695;SDS011;36665;51.786;21.594;2023-05-20T08:40:11;11.90;;;4.00;;
50695;SDS011;36665;51.786;21.594;2023-05-20T08:48:35;8.00;;;3.50;;
50695;SDS011;36665;51.786;21.594;2023-05-20T08:56:59;8.80;;;3.90;;
50695;SDS011;36665;51.786;21.594;2023-05-20T09:05:22;8.70;;;4.30;;
50695;SDS011;36665;51.786;21.594;2023-05-20T09:13:45;7.90;;;5.20;;
50695;SDS011;36665;51.786;21.594;2023-05-20T09:22:08;11.10;;;5.60;;
50695;SDS011;36665;51.786;21.594;2023-05-20T09:30:32;13.70;;;5.90;;
50695;SDS011;36665;51.786;21.594;2023-05-20T09:38:57;13.70;;;8.80;;
50695;SDS011;36665;51.786;21.594;2023-05-20T09:47:26;14.40;;;6.80;;
50695;SDS011;36665;51.786;21.594;2023-05-20T09:55:49;11.10;;;8.60;;
50695;SDS011;36665;51.786;21.594;2023-05-20T10:04:14;9.30;;;6.40;;
50695;SDS011;36665;51.786;21.594;2023-05-20T10:21:15;8.10;;;5.60;;
50695;SDS011;36665;51.786;21.594;2023-05-20T10:38:12;7.30;;;6.00;;
50695;SDS011;36665;51.786;21.594;2023-05-20T10:46:35;9.20;;;6.10;;
50695;SDS011;36665;51.786;21.594;2023-05-20T10:55:18;16.20;;;6.80;;
50695;SDS011;36665;51.786;21.594;2023-05-20T11:03:44;9.70;;;6.20;;
50695;SDS011;36665;51.786;21.594;2023-05-20T11:12:12;11.20;;;6.50;;
50695;SDS011;36665;51.786;21.594;2023-05-20T11:20:37;10.50;;;8.10;;
50695;SDS011;36665;51.786;21.594;2023-05-20T11:29:00;12.10;;;6.50;;
50695;SDS011;36665;51.786;21.594;2023-05-20T11:41:45;12.80;;;7.10;;
50695;SDS011;36665;51.786;21.594;2023-05-20T11:50:09;20.40;;;15.40;;
50695;SDS011;36665;51.786;21.594;2023-05-20T11:58:32;8.00;;;6.50;;
50695;SDS011;36665;51.786;21.594;2023-05-20T12:06:55;9.70;;;6.40;;
50695;SDS011;36665;51.786;21.594;2023-05-20T12:15:18;11.70;;;6.80;;
50695;SDS011;36665;51.786;21.594;2023-05-20T12:23:41;8.20;;;5.60;;
50695;SDS011;36665;51.786;21.594;2023-05-20T12:32:04;10.50;;;7.40;;
50695;SDS011;36665;51.786;21.594;2023-05-20T12:40:28;10.70;;;5.50;;
50695;SDS011;36665;51.786;21.594;2023-05-20T12:48:51;11.50;;;6.10;;
50695;SDS011;36665;51.786;21.594;2023-05-20T12:57:14;9.70;;;6.20;;
50695;SDS011;36665;51.786;21.594;2023-05-20T13:05:38;8.80;;;5.70;;
50695;SDS011;36665;51.786;21.594;2023-05-20T13:14:01;10.70;;;6.20;;
50695;SDS011;36665;51.786;21.594;2023-05-20T13:22:23;8.60;;;5.20;;
50695;SDS011;36665;51.786;21.594;2023-05-20T13:30:47;13.70;;;8.40;;
50695;SDS011;36665;51.786;21.594;2023-05-20T13:39:10;9.20;;;5.10;;
50695;SDS011;36665;51.786;21.594;2023-05-20T13:47:33;9.10;;;5.00;;
50695;SDS011;36665;51.786;21.594;2023-05-20T13:55:56;7.70;;;5.20;;
50695;SDS011;36665;51.786;21.594;2023-05-20T14:04:20;9.20;;;5.90;;
50695;SDS011;36665;51.786;21.594;2023-05-20T14:12:43;8.00;;;5.00;;
50695;SDS011;36665;51.786;21.594;2023-05-20T14:21:10;7.10;;;5.60;;
50695;SDS011;36665;51.786;21.594;2023-05-20T14:29:33;7.30;;;4.60;;
50695;SDS011;36665;51.786;21.594;2023-05-20T14:37:56;7.50;;;4.50;;
50695;SDS011;36665;51.786;21.594;2023-05-20T14:46:21;8.20;;;4.40;;
50695;SDS011;36665;51.786;21.594;2023-05-20T14:54:44;8.00;;;4.50;;
50695;SDS011;36665;51.786;21.594;2023-05-20T15:03:07;10.40;;;4.20;;
50695;SDS011;36665;51.786;21.594;2023-05-20T15:11:31;13.60;;;9.50;;
50695;SDS011;36665;51.786;21.594;2023-05-20T15:19:54;546.30;;;401.80;;
50695;SDS011;36665;51.786;21.594;2023-05-20T15:28:17;261.10;;;206.70;;
50695;SDS011;36665;51.786;21.594;2023-05-20T15:36:41;217.30;;;175.10;;
50695;SDS011;36665;51.786;21.594;2023-05-20T15:45:04;160.50;;;120.60;;
50695;SDS011;36665;51.786;21.594;2023-05-20T15:53:28;299.90;;;253.90;;
50695;SDS011;36665;51.786;21.594;2023-05-20T16:01:52;396.60;;;328.70;;
50695;SDS011;36665;51.786;21.594;2023-05-20T16:10:16;83.80;;;66.30;;
50695;SDS011;36665;51.786;21.594;2023-05-20T16:18:40;435.90;;;343.60;;
50695;SDS011;36665;51.786;21.594;2023-05-20T16:27:03;484.30;;;412.20;;
50695;SDS011;36665;51.786;21.594;2023-05-20T16:35:26;432.20;;;335.50;;
50695;SDS011;36665;51.786;21.594;2023-05-20T16:43:49;317.30;;;231.50;;
50695;SDS011;36665;51.786;21.594;2023-05-20T16:52:12;239.70;;;121.60;;
50695;SDS011;36665;51.786;21.594;2023-05-20T17:00:35;345.10;;;200.90;;
50695;SDS011;36665;51.786;21.594;2023-05-20T17:08:58;142.80;;;88.60;;
50695;SDS011;36665;51.786;21.594;2023-05-20T17:17:21;595.60;;;348.90;;
50695;SDS011;36665;51.786;21.594;2023-05-20T17:25:44;501.60;;;345.40;;
50695;SDS011;36665;51.786;21.594;2023-05-20T17:34:09;693.40;;;399.00;;
50695;SDS011;36665;51.786;21.594;2023-05-20T17:42:32;229.80;;;82.70;;
50695;SDS011;36665;51.786;21.594;2023-05-20T17:50:55;493.90;;;206.80;;
50695;SDS011;36665;51.786;21.594;2023-05-20T17:59:19;351.60;;;104.50;;
50695;SDS011;36665;51.786;21.594;2023-05-20T18:07:42;343.60;;;120.70;;
50695;SDS011;36665;51.786;21.594;2023-05-20T18:16:05;265.80;;;96.40;;
50695;SDS011;36665;51.786;21.594;2023-05-20T18:24:29;172.50;;;63.50;;
50695;SDS011;36665;51.786;21.594;2023-05-20T18:32:52;128.40;;;38.50;;
50695;SDS011;36665;51.786;21.594;2023-05-20T18:41:15;46.10;;;13.40;;
50695;SDS011;36665;51.786;21.594;2023-05-20T18:49:38;359.70;;;135.20;;
50695;SDS011;36665;51.786;21.594;2023-05-20T18:58:01;191.50;;;66.30;;
50695;SDS011;36665;51.786;21.594;2023-05-20T19:06:24;303.50;;;119.90;;
50695;SDS011;36665;51.786;21.594;2023-05-20T19:14:47;63.20;;;27.20;;
50695;SDS011;36665;51.786;21.594;2023-05-20T19:23:10;30.20;;;13.90;;
50695;SDS011;36665;51.786;21.594;2023-05-20T19:31:33;22.30;;;9.40;;
50695;SDS011;36665;51.786;21.594;2023-05-20T19:39:56;39.10;;;13.50;;
50695;SDS011;36665;51.786;21.594;2023-05-20T19:48:19;9.70;;;4.50;;
50695;SDS011;36665;51.786;21.594;2023-05-20T19:56:44;53.50;;;18.70;;
50695;SDS011;36665;51.786;21.594;2023-05-20T20:05:07;35.40;;;12.40;;
50695;SDS011;36665;51.786;21.594;2023-05-20T20:13:30;17.40;;;7.40;;
50695;SDS011;36665;51.786;21.594;2023-05-20T20:21:53;23.80;;;10.30;;
50695;SDS011;36665;51.786;21.594;2023-05-20T20:30:20;20.40;;;6.00;;
50695;SDS011;36665;51.786;21.594;2023-05-20T20:38:43;13.80;;;6.20;;
50695;SDS011;36665;51.786;21.594;2023-05-20T20:47:08;59.60;;;20.90;;
50695;SDS011;36665;51.786;21.594;2023-05-20T20:55:31;14.40;;;8.70;;
50695;SDS011;36665;51.786;21.594;2023-05-20T21:03:56;20.70;;;7.70;;
50695;SDS011;36665;51.786;21.594;2023-05-20T21:12:20;29.70;;;9.80;;
50695;SDS011;36665;51.786;21.594;2023-05-20T21:20:43;20.10;;;11.60;;
50695;SDS011;36665;51.786;21.594;2023-05-20T21:29:06;30.60;;;15.10;;
50695;SDS011;36665;51.786;21.594;2023-05-20T21:37:31;14.20;;;7.10;;
50695;SDS011;36665;51.786;21.594;2023-05-20T21:45:54;13.90;;;5.60;;
50695;SDS011;36665;51.786;21.594;2023-05-20T21:54:17;13.90;;;6.80;;
50695;SDS011;36665;51.786;21.594;2023-05-20T22:02:40;22.90;;;9.80;;
50695;SDS011;36665;51.786;21.594;2023-05-20T22:11:04;29.50;;;12.50;;
50695;SDS011;36665;51.786;21.594;2023-05-20T22:19:27;13.20;;;5.90;;
50695;SDS011;36665;51.786;21.594;2023-05-20T22:27:52;16.40;;;7.40;;
50695;SDS011;36665;51.786;21.594;2023-05-20T22:36:15;9.60;;;5.70;;
50695;SDS011;36665;51.786;21.594;2023-05-20T22:44:38;30.10;;;9.30;;
50695;SDS011;36665;51.786;21.594;2023-05-20T22:53:01;45.50;;;19.20;;
50695;SDS011;36665;51.786;21.594;2023-05-20T23:01:24;18.50;;;7.40;;
50695;SDS011;36665;51.786;21.594;2023-05-20T23:09:47;14.50;;;6.60;;
50695;SDS011;36665;51.786;21.594;2023-05-20T23:18:10;17.60;;;6.60;;
50695;SDS011;36665;51.786;21.594;2023-05-20T23:26:33;20.40;;;7.80;;
50695;SDS011;36665;51.786;21.594;2023-05-20T23:34:59;19.80;;;7.90;;
50695;SDS011;36665;51.786;21.594;2023-05-20T23:43:26;14.90;;;6.60;;
50695;SDS011;36665;51.786;21.594;2023-05-20T23:51:49;10.40;;;5.40;;
